sensor_id;sensor_type;location;lat;lon;timestamp;temperature;humidity
3942;DHT22;1985;48.592;8.850;2024-02-14T00:02:17;4.50;99.90
3942;DHT22;1985;48.592;8.850;2024-02-14T00:04:43;4.50;99.90
3942;DHT22;1985;48.592;8.850;2024-02-14T00:07:08;4.50;99.90
3942;DHT22;1985;48.592;8.850;2024-02-14T00:09:34;4.50;99.90
3942;DHT22;1985;48.592;8.850;2024-02-14T00:12:00;4.60;99.90
3942;DHT22;1985;48.592;8.850;2024-02-14T00:14:26;4.60;99.90
3942;DHT22;1985;48.592;8.850;2024-02-14T00:16:52;4.70;99.90
3942;DHT22;1985;48.592;8.850;2024-02-14T00:19:18;4.70;99.90
3942;DHT22;1985;48.592;8.850;2024-02-14T00:21:43;4.60;99.90
3942;DHT22;1985;48.592;8.850;2024-02-14T00:24:09;4.60;99.90
3942;DHT22;1985;48.592;8.850;2024-02-14T00:26:35;4.70;99.90
3942;DHT22;1985;48.592;8.850;2024-02-14T00:29:01;4.80;99.90
3942;DHT22;1985;48.592;8.850;2024-02-14T00:31:26;4.80;99.90
3942;DHT22;1985;48.592;8.850;2024-02-14T00:33:52;4.80;99.90
3942;DHT22;1985;48.592;8.850;2024-02-14T00:36:18;4.70;99.90
3942;DHT22;1985;48.592;8.850;2024-02-14T00:38:43;4.60;99.90
3942;DHT22;1985;48.592;8.850;2024-02-14T00:41:11;4.60;99.90
3942;DHT22;1985;48.592;8.850;2024-02-14T00:43:36;4.60;99.90
3942;DHT22;1985;48.592;8.850;2024-02-14T00:46:02;4.60;99.90
3942;DHT22;1985;48.592;8.850;2024-02-14T00:48:28;4.60;99.90
3942;DHT22;1985;48.592;8.850;2024-02-14T00:50:53;4.60;99.90
3942;DHT22;1985;48.592;8.850;2024-02-14T00:53:19;4.60;99.90
3942;DHT22;1985;48.592;8.850;2024-02-14T00:55:46;4.70;99.90
3942;DHT22;1985;48.592;8.850;2024-02-14T00:58:11;4.80;99.90
3942;DHT22;1985;48.592;8.850;2024-02-14T01:00:37;4.70;99.90
3942;DHT22;1985;48.592;8.850;2024-02-14T01:03:03;4.70;99.90
3942;DHT22;1985;48.592;8.850;2024-02-14T01:05:29;4.50;99.90
3942;DHT22;1985;48.592;8.850;2024-02-14T01:07:54;4.40;99.90
3942;DHT22;1985;48.592;8.850;2024-02-14T01:10:20;4.30;99.90
3942;DHT22;1985;48.592;8.850;2024-02-14T01:12:46;4.10;99.90
3942;DHT22;1985;48.592;8.850;2024-02-14T01:15:12;4.00;99.90
3942;DHT22;1985;48.592;8.850;2024-02-14T01:17:37;3.90;99.90
3942;DHT22;1985;48.592;8.850;2024-02-14T01:20:05;3.80;99.90
3942;DHT22;1985;48.592;8.850;2024-02-14T01:22:34;3.80;99.90
3942;DHT22;1985;48.592;8.850;2024-02-14T01:24:59;3.70;99.90
3942;DHT22;1985;48.592;8.850;2024-02-14T01:27:25;3.60;99.90
3942;DHT22;1985;48.592;8.850;2024-02-14T01:29:51;3.60;99.90
3942;DHT22;1985;48.592;8.850;2024-02-14T01:32:16;3.70;99.90
3942;DHT22;1985;48.592;8.850;2024-02-14T01:34:42;3.80;99.90
3942;DHT22;1985;48.592;8.850;2024-02-14T01:37:09;3.90;99.90
3942;DHT22;1985;48.592;8.850;2024-02-14T01:39:37;3.90;99.90
3942;DHT22;1985;48.592;8.850;2024-02-14T01:42:03;3.90;99.90
3942;DHT22;1985;48.592;8.850;2024-02-14T01:44:33;4.10;99.90
3942;DHT22;1985;48.592;8.850;2024-02-14T01:47:00;4.20;99.90
3942;DHT22;1985;48.592;8.850;2024-02-14T01:49:26;4.40;99.90
3942;DHT22;1985;48.592;8.850;2024-02-14T01:51:55;4.50;99.90
3942;DHT22;1985;48.592;8.850;2024-02-14T01:54:25;4.60;99.90
3942;DHT22;1985;48.592;8.850;2024-02-14T01:56:52;4.70;99.90
3942;DHT22;1985;48.592;8.850;2024-02-14T01:59:18;4.80;99.90
3942;DHT22;1985;48.592;8.850;2024-02-14T02:01:44;4.70;99.90
3942;DHT22;1985;48.592;8.850;2024-02-14T02:04:10;4.60;99.90
3942;DHT22;1985;48.592;8.850;2024-02-14T02:06:36;4.60;99.90
3942;DHT22;1985;48.592;8.850;2024-02-14T02:09:03;4.70;99.90
3942;DHT22;1985;48.592;8.850;2024-02-14T02:11:28;4.60;99.90
3942;DHT22;1985;48.592;8.850;2024-02-14T02:13:54;4.60;99.90
3942;DHT22;1985;48.592;8.850;2024-02-14T02:16:20;4.50;99.90
3942;DHT22;1985;48.592;8.850;2024-02-14T02:18:47;4.30;99.90
3942;DHT22;1985;48.592;8.850;2024-02-14T02:21:14;4.20;99.90
3942;DHT22;1985;48.592;8.850;2024-02-14T02:23:40;4.20;99.90
3942;DHT22;1985;48.592;8.850;2024-02-14T02:26:09;4.30;99.90
3942;DHT22;1985;48.592;8.850;2024-02-14T02:28:36;4.40;99.90
3942;DHT22;1985;48.592;8.850;2024-02-14T02:31:02;4.50;99.90
3942;DHT22;1985;48.592;8.850;2024-02-14T02:33:27;4.50;99.90
3942;DHT22;1985;48.592;8.850;2024-02-14T02:35:53;4.40;99.90
3942;DHT22;1985;48.592;8.850;2024-02-14T02:38:19;4.30;99.90
3942;DHT22;1985;48.592;8.850;2024-02-14T02:40:47;4.20;99.90
3942;DHT22;1985;48.592;8.850;2024-02-14T02:43:14;4.20;99.90
3942;DHT22;1985;48.592;8.850;2024-02-14T02:45:40;4.10;99.90
3942;DHT22;1985;48.592;8.850;2024-02-14T02:48:06;4.10;99.90
3942;DHT22;1985;48.592;8.850;2024-02-14T02:50:32;4.00;99.90
3942;DHT22;1985;48.592;8.850;2024-02-14T02:52:57;3.90;99.90
3942;DHT22;1985;48.592;8.850;2024-02-14T02:55:23;3.80;99.90
3942;DHT22;1985;48.592;8.850;2024-02-14T02:57:49;3.60;99.90
3942;DHT22;1985;48.592;8.850;2024-02-14T03:00:15;3.70;99.90
3942;DHT22;1985;48.592;8.850;2024-02-14T03:02:41;3.70;99.90
3942;DHT22;1985;48.592;8.850;2024-02-14T03:05:10;3.70;99.90
3942;DHT22;1985;48.592;8.850;2024-02-14T03:07:45;3.80;99.90
3942;DHT22;1985;48.592;8.850;2024-02-14T03:10:13;4.00;99.90
3942;DHT22;1985;48.592;8.850;2024-02-14T03:12:40;4.10;99.90
3942;DHT22;1985;48.592;8.850;2024-02-14T03:15:06;4.20;99.90
3942;DHT22;1985;48.592;8.850;2024-02-14T03:17:35;4.30;99.90
3942;DHT22;1985;48.592;8.850;2024-02-14T03:20:01;4.20;99.90
3942;DHT22;1985;48.592;8.850;2024-02-14T03:22:26;4.10;99.90
3942;DHT22;1985;48.592;8.850;2024-02-14T03:24:52;4.10;99.90
3942;DHT22;1985;48.592;8.850;2024-02-14T03:27:18;4.10;99.90
3942;DHT22;1985;48.592;8.850;2024-02-14T03:29:44;4.20;99.90
3942;DHT22;1985;48.592;8.850;2024-02-14T03:32:10;4.20;99.90
3942;DHT22;1985;48.592;8.850;2024-02-14T03:34:35;4.30;99.90
3942;DHT22;1985;48.592;8.850;2024-02-14T03:37:02;4.30;99.90
3942;DHT22;1985;48.592;8.850;2024-02-14T03:39:29;4.30;99.90
3942;DHT22;1985;48.592;8.850;2024-02-14T03:41:54;4.40;99.90
3942;DHT22;1985;48.592;8.850;2024-02-14T03:44:22;4.60;99.90
3942;DHT22;1985;48.592;8.850;2024-02-14T03:46:48;4.70;99.90
3942;DHT22;1985;48.592;8.850;2024-02-14T03:49:14;4.80;99.90
3942;DHT22;1985;48.592;8.850;2024-02-14T03:51:40;4.80;99.90
3942;DHT22;1985;48.592;8.850;2024-02-14T03:54:06;4.90;99.90
3942;DHT22;1985;48.592;8.850;2024-02-14T03:56:31;4.90;99.90
3942;DHT22;1985;48.592;8.850;2024-02-14T03:58:59;4.90;99.90
3942;DHT22;1985;48.592;8.850;2024-02-14T04:01:24;4.80;99.90
3942;DHT22;1985;48.592;8.850;2024-02-14T04:03:50;4.80;99.90
3942;DHT22;1985;48.592;8.850;2024-02-14T04:06:16;4.70;99.90
3942;DHT22;1985;48.592;8.850;2024-02-14T04:08:43;4.50;99.90
3942;DHT22;1985;48.592;8.850;2024-02-14T04:11:09;4.40;99.90
3942;DHT22;1985;48.592;8.850;2024-02-14T04:13:35;4.20;99.90
3942;DHT22;1985;48.592;8.850;2024-02-14T04:16:01;4.10;99.90
3942;DHT22;1985;48.592;8.850;2024-02-14T04:18:26;4.00;99.90
3942;DHT22;1985;48.592;8.850;2024-02-14T04:20:52;3.90;99.90
3942;DHT22;1985;48.592;8.850;2024-02-14T04:23:18;3.70;99.90
3942;DHT22;1985;48.592;8.850;2024-02-14T04:25:44;3.80;99.90
3942;DHT22;1985;48.592;8.850;2024-02-14T04:28:09;3.80;99.90
3942;DHT22;1985;48.592;8.850;2024-02-14T04:30:37;3.80;99.90
3942;DHT22;1985;48.592;8.850;2024-02-14T04:33:04;3.90;99.90
3942;DHT22;1985;48.592;8.850;2024-02-14T04:35:30;4.00;99.90
3942;DHT22;1985;48.592;8.850;2024-02-14T04:37:56;4.10;99.90
3942;DHT22;1985;48.592;8.850;2024-02-14T04:40:22;4.10;99.90
3942;DHT22;1985;48.592;8.850;2024-02-14T04:42:48;4.10;99.90
3942;DHT22;1985;48.592;8.850;2024-02-14T04:45:13;4.10;99.90
3942;DHT22;1985;48.592;8.850;2024-02-14T04:47:39;4.00;99.90
3942;DHT22;1985;48.592;8.850;2024-02-14T04:50:05;3.90;99.90
3942;DHT22;1985;48.592;8.850;2024-02-14T04:52:31;3.90;99.90
3942;DHT22;1985;48.592;8.850;2024-02-14T04:54:57;3.80;99.90
3942;DHT22;1985;48.592;8.850;2024-02-14T04:57:23;3.80;99.90
3942;DHT22;1985;48.592;8.850;2024-02-14T04:59:48;3.80;99.90
3942;DHT22;1985;48.592;8.850;2024-02-14T05:02:14;3.90;99.90
3942;DHT22;1985;48.592;8.850;2024-02-14T05:04:40;3.90;99.90
3942;DHT22;1985;48.592;8.850;2024-02-14T05:07:06;3.80;99.90
3942;DHT22;1985;48.592;8.850;2024-02-14T05:09:32;3.70;99.90
3942;DHT22;1985;48.592;8.850;2024-02-14T05:11:57;3.80;99.90
3942;DHT22;1985;48.592;8.850;2024-02-14T05:14:23;3.90;99.90
3942;DHT22;1985;48.592;8.850;2024-02-14T05:16:49;4.00;99.90
3942;DHT22;1985;48.592;8.850;2024-02-14T05:19:15;4.10;99.90
3942;DHT22;1985;48.592;8.850;2024-02-14T05:21:41;4.10;99.90
3942;DHT22;1985;48.592;8.850;2024-02-14T05:24:06;4.10;99.90
3942;DHT22;1985;48.592;8.850;2024-02-14T05:26:33;4.00;99.90
3942;DHT22;1985;48.592;8.850;2024-02-14T05:28:59;4.00;99.90
3942;DHT22;1985;48.592;8.850;2024-02-14T05:31:24;4.00;99.90
3942;DHT22;1985;48.592;8.850;2024-02-14T05:33:50;4.10;99.90
3942;DHT22;1985;48.592;8.850;2024-02-14T05:36:16;4.00;99.90
3942;DHT22;1985;48.592;8.850;2024-02-14T05:38:42;4.00;99.90
3942;DHT22;1985;48.592;8.850;2024-02-14T05:41:08;4.00;99.90
3942;DHT22;1985;48.592;8.850;2024-02-14T05:43:34;4.00;99.90
3942;DHT22;1985;48.592;8.850;2024-02-14T05:46:00;3.90;99.90
3942;DHT22;1985;48.592;8.850;2024-02-14T05:48:26;4.00;99.90
3942;DHT22;1985;48.592;8.850;2024-02-14T05:50:51;4.00;99.90
3942;DHT22;1985;48.592;8.850;2024-02-14T05:53:17;4.00;99.90
3942;DHT22;1985;48.592;8.850;2024-02-14T05:55:43;4.00;99.90
3942;DHT22;1985;48.592;8.850;2024-02-14T05:58:09;4.10;99.90
3942;DHT22;1985;48.592;8.850;2024-02-14T06:00:35;4.20;99.90
3942;DHT22;1985;48.592;8.850;2024-02-14T06:03:01;4.10;99.90
3942;DHT22;1985;48.592;8.850;2024-02-14T06:05:27;4.00;99.90
3942;DHT22;1985;48.592;8.850;2024-02-14T06:07:53;4.10;99.90
3942;DHT22;1985;48.592;8.850;2024-02-14T06:10:18;4.10;99.90
3942;DHT22;1985;48.592;8.850;2024-02-14T06:12:44;4.20;99.90
3942;DHT22;1985;48.592;8.850;2024-02-14T06:15:11;4.30;99.90
3942;DHT22;1985;48.592;8.850;2024-02-14T06:17:37;4.40;99.90
3942;DHT22;1985;48.592;8.850;2024-02-14T06:20:02;4.50;99.90
3942;DHT22;1985;48.592;8.850;2024-02-14T06:22:33;4.60;99.90
3942;DHT22;1985;48.592;8.850;2024-02-14T06:25:00;4.60;99.90
3942;DHT22;1985;48.592;8.850;2024-02-14T06:27:26;4.60;99.90
3942;DHT22;1985;48.592;8.850;2024-02-14T06:29:53;4.60;99.90
3942;DHT22;1985;48.592;8.850;2024-02-14T06:32:18;4.70;99.90
3942;DHT22;1985;48.592;8.850;2024-02-14T06:34:44;4.80;99.90
3942;DHT22;1985;48.592;8.850;2024-02-14T06:37:10;4.90;99.90
3942;DHT22;1985;48.592;8.850;2024-02-14T06:39:35;4.90;99.90
3942;DHT22;1985;48.592;8.850;2024-02-14T06:42:01;5.00;99.90
3942;DHT22;1985;48.592;8.850;2024-02-14T06:44:26;5.00;99.90
3942;DHT22;1985;48.592;8.850;2024-02-14T06:46:52;5.10;99.90
3942;DHT22;1985;48.592;8.850;2024-02-14T06:49:18;5.20;99.90
3942;DHT22;1985;48.592;8.850;2024-02-14T06:51:44;5.20;99.90
3942;DHT22;1985;48.592;8.850;2024-02-14T06:54:10;5.10;99.90
3942;DHT22;1985;48.592;8.850;2024-02-14T06:56:38;5.10;99.90
3942;DHT22;1985;48.592;8.850;2024-02-14T06:59:04;5.00;99.90
3942;DHT22;1985;48.592;8.850;2024-02-14T07:01:30;4.90;99.90
3942;DHT22;1985;48.592;8.850;2024-02-14T07:03:56;4.90;99.90
3942;DHT22;1985;48.592;8.850;2024-02-14T07:06:22;5.00;99.90
3942;DHT22;1985;48.592;8.850;2024-02-14T07:08:48;5.00;99.90
3942;DHT22;1985;48.592;8.850;2024-02-14T07:11:14;5.00;99.90
3942;DHT22;1985;48.592;8.850;2024-02-14T07:13:41;5.10;99.90
3942;DHT22;1985;48.592;8.850;2024-02-14T07:16:07;5.10;99.90
3942;DHT22;1985;48.592;8.850;2024-02-14T07:18:34;5.10;99.90
3942;DHT22;1985;48.592;8.850;2024-02-14T07:20:59;5.10;99.90
3942;DHT22;1985;48.592;8.850;2024-02-14T07:23:25;5.20;99.90
3942;DHT22;1985;48.592;8.850;2024-02-14T07:25:51;5.40;99.90
3942;DHT22;1985;48.592;8.850;2024-02-14T07:28:17;5.50;99.90
3942;DHT22;1985;48.592;8.850;2024-02-14T07:30:43;5.60;99.90
3942;DHT22;1985;48.592;8.850;2024-02-14T07:33:09;5.80;99.90
3942;DHT22;1985;48.592;8.850;2024-02-14T07:35:37;6.00;99.90
3942;DHT22;1985;48.592;8.850;2024-02-14T07:38:02;6.20;99.90
3942;DHT22;1985;48.592;8.850;2024-02-14T07:40:28;6.30;99.90
3942;DHT22;1985;48.592;8.850;2024-02-14T07:42:57;6.50;99.90
3942;DHT22;1985;48.592;8.850;2024-02-14T07:45:22;6.60;99.90
3942;DHT22;1985;48.592;8.850;2024-02-14T07:47:51;6.80;99.90
3942;DHT22;1985;48.592;8.850;2024-02-14T07:50:17;6.90;99.90
3942;DHT22;1985;48.592;8.850;2024-02-14T07:52:44;7.00;99.90
3942;DHT22;1985;48.592;8.850;2024-02-14T07:55:10;7.10;99.90
3942;DHT22;1985;48.592;8.850;2024-02-14T07:57:39;7.00;99.90
3942;DHT22;1985;48.592;8.850;2024-02-14T08:00:09;7.10;99.90
3942;DHT22;1985;48.592;8.850;2024-02-14T08:02:35;7.10;99.90
3942;DHT22;1985;48.592;8.850;2024-02-14T08:05:02;7.20;99.90
3942;DHT22;1985;48.592;8.850;2024-02-14T08:07:27;7.20;99.90
3942;DHT22;1985;48.592;8.850;2024-02-14T08:09:54;7.10;99.90
3942;DHT22;1985;48.592;8.850;2024-02-14T08:12:20;7.20;99.90
3942;DHT22;1985;48.592;8.850;2024-02-14T08:14:46;7.30;99.90
3942;DHT22;1985;48.592;8.850;2024-02-14T08:17:13;7.30;99.90
3942;DHT22;1985;48.592;8.850;2024-02-14T08:19:39;7.40;99.90
3942;DHT22;1985;48.592;8.850;2024-02-14T08:22:05;7.60;99.90
3942;DHT22;1985;48.592;8.850;2024-02-14T08:24:31;7.90;99.90
3942;DHT22;1985;48.592;8.850;2024-02-14T08:26:57;8.10;99.90
3942;DHT22;1985;48.592;8.850;2024-02-14T08:29:23;8.20;99.90
3942;DHT22;1985;48.592;8.850;2024-02-14T08:31:49;8.20;99.90
3942;DHT22;1985;48.592;8.850;2024-02-14T08:34:15;8.20;99.90
3942;DHT22;1985;48.592;8.850;2024-02-14T08:36:44;8.30;99.90
3942;DHT22;1985;48.592;8.850;2024-02-14T08:39:10;8.20;99.90
3942;DHT22;1985;48.592;8.850;2024-02-14T08:41:39;8.20;99.90
3942;DHT22;1985;48.592;8.850;2024-02-14T08:44:09;8.20;99.90
3942;DHT22;1985;48.592;8.850;2024-02-14T08:46:35;8.20;99.90
3942;DHT22;1985;48.592;8.850;2024-02-14T08:49:01;8.20;99.90
3942;DHT22;1985;48.592;8.850;2024-02-14T08:51:35;8.20;99.90
3942;DHT22;1985;48.592;8.850;2024-02-14T08:54:00;8.20;99.90
3942;DHT22;1985;48.592;8.850;2024-02-14T08:56:31;8.30;99.90
3942;DHT22;1985;48.592;8.850;2024-02-14T08:59:02;8.30;99.90
3942;DHT22;1985;48.592;8.850;2024-02-14T09:01:31;8.40;99.90
3942;DHT22;1985;48.592;8.850;2024-02-14T09:03:57;8.30;99.90
3942;DHT22;1985;48.592;8.850;2024-02-14T09:06:24;8.30;99.90
3942;DHT22;1985;48.592;8.850;2024-02-14T09:08:52;8.30;99.90
3942;DHT22;1985;48.592;8.850;2024-02-14T09:11:18;8.20;99.90
3942;DHT22;1985;48.592;8.850;2024-02-14T09:13:44;8.10;99.90
3942;DHT22;1985;48.592;8.850;2024-02-14T09:16:13;8.00;99.90
3942;DHT22;1985;48.592;8.850;2024-02-14T09:18:40;8.00;99.90
3942;DHT22;1985;48.592;8.850;2024-02-14T09:21:06;8.10;99.90
3942;DHT22;1985;48.592;8.850;2024-02-14T09:23:32;8.10;99.90
3942;DHT22;1985;48.592;8.850;2024-02-14T09:25:58;8.10;99.90
3942;DHT22;1985;48.592;8.850;2024-02-14T09:28:24;8.30;99.90
3942;DHT22;1985;48.592;8.850;2024-02-14T09:30:51;8.60;99.90
3942;DHT22;1985;48.592;8.850;2024-02-14T09:33:17;8.70;99.90
3942;DHT22;1985;48.592;8.850;2024-02-14T09:35:42;8.90;99.90
3942;DHT22;1985;48.592;8.850;2024-02-14T09:38:13;9.10;99.90
3942;DHT22;1985;48.592;8.850;2024-02-14T09:40:42;9.30;99.90
3942;DHT22;1985;48.592;8.850;2024-02-14T09:43:24;9.40;99.90
3942;DHT22;1985;48.592;8.850;2024-02-14T09:45:53;9.60;99.90
3942;DHT22;1985;48.592;8.850;2024-02-14T09:48:20;9.70;99.90
3942;DHT22;1985;48.592;8.850;2024-02-14T09:50:48;9.80;99.90
3942;DHT22;1985;48.592;8.850;2024-02-14T09:53:14;10.00;99.90
3942;DHT22;1985;48.592;8.850;2024-02-14T09:55:41;10.10;99.90
3942;DHT22;1985;48.592;8.850;2024-02-14T09:58:07;10.00;99.90
3942;DHT22;1985;48.592;8.850;2024-02-14T10:00:34;10.10;99.90
3942;DHT22;1985;48.592;8.850;2024-02-14T10:03:00;10.10;99.90
3942;DHT22;1985;48.592;8.850;2024-02-14T10:05:25;10.20;99.90
3942;DHT22;1985;48.592;8.850;2024-02-14T10:07:51;10.40;99.90
3942;DHT22;1985;48.592;8.850;2024-02-14T10:10:17;10.60;99.90
3942;DHT22;1985;48.592;8.850;2024-02-14T10:12:43;10.60;99.90
3942;DHT22;1985;48.592;8.850;2024-02-14T10:15:09;10.70;99.90
3942;DHT22;1985;48.592;8.850;2024-02-14T10:17:35;11.00;99.90
3942;DHT22;1985;48.592;8.850;2024-02-14T10:20:02;11.40;99.90
3942;DHT22;1985;48.592;8.850;2024-02-14T10:22:37;11.60;99.90
3942;DHT22;1985;48.592;8.850;2024-02-14T10:25:05;12.10;99.90
3942;DHT22;1985;48.592;8.850;2024-02-14T10:27:38;12.30;99.90
3942;DHT22;1985;48.592;8.850;2024-02-14T10:30:08;12.30;99.90
3942;DHT22;1985;48.592;8.850;2024-02-14T10:32:41;12.00;99.90
3942;DHT22;1985;48.592;8.850;2024-02-14T10:35:13;12.40;99.90
3942;DHT22;1985;48.592;8.850;2024-02-14T10:37:39;13.10;99.90
3942;DHT22;1985;48.592;8.850;2024-02-14T10:40:05;14.00;99.90
3942;DHT22;1985;48.592;8.850;2024-02-14T10:42:32;15.50;99.90
3942;DHT22;1985;48.592;8.850;2024-02-14T10:44:59;14.70;99.90
3942;DHT22;1985;48.592;8.850;2024-02-14T10:47:44;13.60;99.90
3942;DHT22;1985;48.592;8.850;2024-02-14T10:50:14;13.60;99.90
3942;DHT22;1985;48.592;8.850;2024-02-14T10:52:41;14.20;99.90
3942;DHT22;1985;48.592;8.850;2024-02-14T10:55:07;13.70;99.90
3942;DHT22;1985;48.592;8.850;2024-02-14T10:57:34;13.40;99.90
3942;DHT22;1985;48.592;8.850;2024-02-14T11:00:04;13.30;99.90
3942;DHT22;1985;48.592;8.850;2024-02-14T11:02:30;13.10;99.90
3942;DHT22;1985;48.592;8.850;2024-02-14T11:04:58;13.30;99.90
3942;DHT22;1985;48.592;8.850;2024-02-14T11:07:23;13.80;99.90
3942;DHT22;1985;48.592;8.850;2024-02-14T11:10:12;13.70;99.90
3942;DHT22;1985;48.592;8.850;2024-02-14T11:12:40;14.00;99.90
3942;DHT22;1985;48.592;8.850;2024-02-14T11:15:24;13.70;99.90
3942;DHT22;1985;48.592;8.850;2024-02-14T11:17:50;13.40;99.90
3942;DHT22;1985;48.592;8.850;2024-02-14T11:20:21;13.90;99.90
3942;DHT22;1985;48.592;8.850;2024-02-14T11:22:56;14.70;99.90
3942;DHT22;1985;48.592;8.850;2024-02-14T11:25:32;14.80;99.90
3942;DHT22;1985;48.592;8.850;2024-02-14T11:28:00;15.20;99.90
3942;DHT22;1985;48.592;8.850;2024-02-14T11:30:36;15.00;99.90
3942;DHT22;1985;48.592;8.850;2024-02-14T11:33:22;15.10;99.90
3942;DHT22;1985;48.592;8.850;2024-02-14T11:35:51;15.70;99.90
3942;DHT22;1985;48.592;8.850;2024-02-14T11:38:19;16.40;99.90
3942;DHT22;1985;48.592;8.850;2024-02-14T11:40:44;17.30;99.90
3942;DHT22;1985;48.592;8.850;2024-02-14T11:43:19;18.00;98.30
3942;DHT22;1985;48.592;8.850;2024-02-14T11:45:46;17.40;96.50
3942;DHT22;1985;48.592;8.850;2024-02-14T11:48:16;17.70;95.30
3942;DHT22;1985;48.592;8.850;2024-02-14T11:50:43;17.40;95.60
3942;DHT22;1985;48.592;8.850;2024-02-14T11:53:14;18.10;95.90
3942;DHT22;1985;48.592;8.850;2024-02-14T11:55:43;17.60;93.70
3942;DHT22;1985;48.592;8.850;2024-02-14T11:58:10;16.00;94.80
3942;DHT22;1985;48.592;8.850;2024-02-14T12:00:40;14.90;97.50
3942;DHT22;1985;48.592;8.850;2024-02-14T12:03:08;15.20;98.40
3942;DHT22;1985;48.592;8.850;2024-02-14T12:05:37;14.70;98.90
3942;DHT22;1985;48.592;8.850;2024-02-14T12:08:05;14.50;99.90
3942;DHT22;1985;48.592;8.850;2024-02-14T12:10:32;14.50;99.90
3942;DHT22;1985;48.592;8.850;2024-02-14T12:12:58;14.40;99.90
3942;DHT22;1985;48.592;8.850;2024-02-14T12:15:29;14.30;99.90
3942;DHT22;1985;48.592;8.850;2024-02-14T12:17:55;14.00;99.90
3942;DHT22;1985;48.592;8.850;2024-02-14T12:20:22;13.50;99.90
3942;DHT22;1985;48.592;8.850;2024-02-14T12:22:51;13.50;99.90
3942;DHT22;1985;48.592;8.850;2024-02-14T12:25:17;13.20;99.90
3942;DHT22;1985;48.592;8.850;2024-02-14T12:27:42;13.10;99.90
3942;DHT22;1985;48.592;8.850;2024-02-14T12:30:15;13.10;99.90
3942;DHT22;1985;48.592;8.850;2024-02-14T12:32:42;13.60;99.90
3942;DHT22;1985;48.592;8.850;2024-02-14T12:35:08;14.10;99.90
3942;DHT22;1985;48.592;8.850;2024-02-14T12:37:34;15.00;99.90
3942;DHT22;1985;48.592;8.850;2024-02-14T12:39:59;15.20;99.90
3942;DHT22;1985;48.592;8.850;2024-02-14T12:42:25;15.10;99.90
3942;DHT22;1985;48.592;8.850;2024-02-14T12:44:54;15.20;99.90
3942;DHT22;1985;48.592;8.850;2024-02-14T12:47:20;15.10;99.90
3942;DHT22;1985;48.592;8.850;2024-02-14T12:49:47;15.00;99.90
3942;DHT22;1985;48.592;8.850;2024-02-14T12:52:14;14.90;99.90
3942;DHT22;1985;48.592;8.850;2024-02-14T12:54:39;14.70;99.90
3942;DHT22;1985;48.592;8.850;2024-02-14T12:57:05;14.50;99.90
3942;DHT22;1985;48.592;8.850;2024-02-14T12:59:32;14.30;99.90
3942;DHT22;1985;48.592;8.850;2024-02-14T13:01:58;14.10;99.90
3942;DHT22;1985;48.592;8.850;2024-02-14T13:04:24;14.40;99.90
3942;DHT22;1985;48.592;8.850;2024-02-14T13:06:49;14.60;99.90
3942;DHT22;1985;48.592;8.850;2024-02-14T13:49:07;13.10;99.90
3942;DHT22;1985;48.592;8.850;2024-02-14T13:51:32;12.90;99.90
3942;DHT22;1985;48.592;8.850;2024-02-14T13:53:58;12.90;99.90
3942;DHT22;1985;48.592;8.850;2024-02-14T13:56:23;13.00;99.90
3942;DHT22;1985;48.592;8.850;2024-02-14T13:58:50;13.10;99.90
3942;DHT22;1985;48.592;8.850;2024-02-14T14:01:15;13.20;99.90
3942;DHT22;1985;48.592;8.850;2024-02-14T14:03:43;13.30;99.90
3942;DHT22;1985;48.592;8.850;2024-02-14T14:06:08;13.60;99.90
3942;DHT22;1985;48.592;8.850;2024-02-14T14:08:35;13.80;99.90
3942;DHT22;1985;48.592;8.850;2024-02-14T14:11:02;14.00;99.90
3942;DHT22;1985;48.592;8.850;2024-02-14T14:13:28;14.10;99.90
3942;DHT22;1985;48.592;8.850;2024-02-14T14:15:57;14.10;99.90
3942;DHT22;1985;48.592;8.850;2024-02-14T14:18:22;14.30;99.90
3942;DHT22;1985;48.592;8.850;2024-02-14T14:20:49;14.50;99.90
3942;DHT22;1985;48.592;8.850;2024-02-14T14:23:14;14.50;99.90
3942;DHT22;1985;48.592;8.850;2024-02-14T14:25:41;14.20;99.90
3942;DHT22;1985;48.592;8.850;2024-02-14T14:28:07;13.80;99.90
3942;DHT22;1985;48.592;8.850;2024-02-14T14:30:35;13.70;99.90
3942;DHT22;1985;48.592;8.850;2024-02-14T14:33:01;13.60;99.90
3942;DHT22;1985;48.592;8.850;2024-02-14T14:35:27;13.60;99.90
3942;DHT22;1985;48.592;8.850;2024-02-14T14:37:52;13.60;99.90
3942;DHT22;1985;48.592;8.850;2024-02-14T14:40:19;13.70;99.90
3942;DHT22;1985;48.592;8.850;2024-02-14T14:42:47;13.70;99.90
3942;DHT22;1985;48.592;8.850;2024-02-14T14:45:12;13.80;99.90
3942;DHT22;1985;48.592;8.850;2024-02-14T14:47:38;13.80;99.90
3942;DHT22;1985;48.592;8.850;2024-02-14T14:50:05;13.70;99.90
3942;DHT22;1985;48.592;8.850;2024-02-14T14:52:32;13.60;99.90
3942;DHT22;1985;48.592;8.850;2024-02-14T14:54:59;13.60;99.90
3942;DHT22;1985;48.592;8.850;2024-02-14T14:57:25;13.50;99.90
3942;DHT22;1985;48.592;8.850;2024-02-14T14:59:52;13.50;99.90
3942;DHT22;1985;48.592;8.850;2024-02-14T15:02:18;13.50;99.90
3942;DHT22;1985;48.592;8.850;2024-02-14T15:04:44;13.60;99.90
3942;DHT22;1985;48.592;8.850;2024-02-14T15:07:12;13.60;99.90
3942;DHT22;1985;48.592;8.850;2024-02-14T15:09:38;13.60;99.90
3942;DHT22;1985;48.592;8.850;2024-02-14T15:12:04;13.60;99.90
3942;DHT22;1985;48.592;8.850;2024-02-14T15:14:30;13.40;99.90
3942;DHT22;1985;48.592;8.850;2024-02-14T15:16:56;13.30;99.90
3942;DHT22;1985;48.592;8.850;2024-02-14T15:19:22;13.30;99.90
3942;DHT22;1985;48.592;8.850;2024-02-14T15:21:50;13.30;99.90
3942;DHT22;1985;48.592;8.850;2024-02-14T15:24:16;13.30;99.90
3942;DHT22;1985;48.592;8.850;2024-02-14T15:26:42;13.20;99.90
3942;DHT22;1985;48.592;8.850;2024-02-14T15:29:24;13.00;99.90
3942;DHT22;1985;48.592;8.850;2024-02-14T15:32:08;12.90;99.90
3942;DHT22;1985;48.592;8.850;2024-02-14T15:34:52;12.80;99.90
3942;DHT22;1985;48.592;8.850;2024-02-14T15:37:18;12.80;99.90
3942;DHT22;1985;48.592;8.850;2024-02-14T15:39:44;12.70;99.90
3942;DHT22;1985;48.592;8.850;2024-02-14T15:42:10;12.80;99.90
3942;DHT22;1985;48.592;8.850;2024-02-14T15:44:36;13.00;99.90
3942;DHT22;1985;48.592;8.850;2024-02-14T15:47:02;13.10;99.90
3942;DHT22;1985;48.592;8.850;2024-02-14T15:49:28;13.20;99.90
3942;DHT22;1985;48.592;8.850;2024-02-14T15:51:53;13.30;99.90
3942;DHT22;1985;48.592;8.850;2024-02-14T15:54:20;13.30;99.90
3942;DHT22;1985;48.592;8.850;2024-02-14T15:56:46;13.40;99.90
3942;DHT22;1985;48.592;8.850;2024-02-14T15:59:12;13.30;99.90
3942;DHT22;1985;48.592;8.850;2024-02-14T16:01:41;13.10;99.90
3942;DHT22;1985;48.592;8.850;2024-02-14T16:04:07;13.00;99.90
3942;DHT22;1985;48.592;8.850;2024-02-14T16:06:32;12.90;99.90
3942;DHT22;1985;48.592;8.850;2024-02-14T16:09:01;12.70;99.90
3942;DHT22;1985;48.592;8.850;2024-02-14T16:11:31;12.70;99.90
3942;DHT22;1985;48.592;8.850;2024-02-14T16:13:57;12.70;99.90
3942;DHT22;1985;48.592;8.850;2024-02-14T16:16:24;12.70;99.90
3942;DHT22;1985;48.592;8.850;2024-02-14T16:18:50;12.60;99.90
3942;DHT22;1985;48.592;8.850;2024-02-14T16:21:16;12.60;99.90
3942;DHT22;1985;48.592;8.850;2024-02-14T16:23:41;12.60;99.90
3942;DHT22;1985;48.592;8.850;2024-02-14T16:26:07;12.60;99.90
3942;DHT22;1985;48.592;8.850;2024-02-14T16:28:33;12.60;99.90
3942;DHT22;1985;48.592;8.850;2024-02-14T16:30:59;12.70;99.90
3942;DHT22;1985;48.592;8.850;2024-02-14T16:33:25;12.80;99.90
3942;DHT22;1985;48.592;8.850;2024-02-14T16:35:51;12.90;99.90
3942;DHT22;1985;48.592;8.850;2024-02-14T16:38:16;13.00;99.90
3942;DHT22;1985;48.592;8.850;2024-02-14T16:40:42;13.00;99.90
3942;DHT22;1985;48.592;8.850;2024-02-14T16:43:08;12.80;99.90
3942;DHT22;1985;48.592;8.850;2024-02-14T16:45:35;12.70;99.90
3942;DHT22;1985;48.592;8.850;2024-02-14T16:48:02;12.60;99.90
3942;DHT22;1985;48.592;8.850;2024-02-14T16:50:28;12.60;99.90